Time;durP1;ratioP1;P1;durP2;ratioP2;P2;SDS_P1;SDS_P2;PMS_P1;PMS_P2;Temp;Humidity;BMP_temperature;BMP_pressure;BME280_temperature;BME280_humidity;BME280_pressure;Samples;Min_cycle;Max_cycle;Signal;HPM_P1;HPM_P2
2022/01/10 00:04:03;;;;;;;49.22;11.07;;;;;;;-3.69;100.00;100302.25;9848151;30;20086;-92
2022/01/10 00:09:07;;;;;;;37.73;10.17;;;;;;;-3.08;100.00;100338.25;9813191;30;20051;-93
2022/01/10 00:14:10;;;;;;;34.00;9.68;;;;;;;-4.00;100.00;100195.50;9843295;30;20089;-92
2022/01/10 00:19:10;;;;;;;40.73;9.20;;;;;;;-4.73;100.00;100052.44;9843056;30;20055;-93
2022/01/10 00:24:11;;;;;;;35.87;8.97;;;;;;;-4.51;100.00;100115.28;9842081;30;20134;-93
2022/01/10 00:29:14;;;;;;;28.13;8.17;;;;;;;-4.29;100.00;100269.53;9857892;30;20426;-92
2022/01/10 00:34:17;;;;;;;46.07;9.73;;;;;;;-6.34;100.00;99834.59;9819670;30;20102;-88
2022/01/10 00:39:18;;;;;;;38.60;8.40;;;;;;;-1.97;100.00;100692.03;9827107;30;20047;-87
2022/01/10 00:44:25;;;;;;;36.88;8.35;;;;;;;-2.22;100.00;100485.53;9840998;30;20036;-88
2022/01/10 00:49:28;;;;;;;37.63;9.03;;;;;;;-5.55;100.00;100068.78;9830548;30;20401;-88
2022/01/10 00:54:31;;;;;;;29.63;8.50;;;;;;;-3.62;100.00;100316.66;9850442;30;20044;-93
2022/01/10 00:59:32;;;;;;;24.53;7.00;;;;;;;-3.45;100.00;100330.91;9848683;30;20405;-93
2022/01/10 01:04:40;;;;;;;37.90;9.43;;;;;;;1.12;100.00;101236.56;9849482;30;20051;-93
2022/01/10 01:09:45;;;;;;;37.47;7.40;;;;;;;-0.01;100.00;101070.16;9835948;30;20050;-92
2022/01/10 01:14:54;;;;;;;29.80;7.43;;;;;;;-7.78;100.00;99693.34;9850405;30;20047;-92
2022/01/10 01:24:58;;;;;;;28.40;8.07;;;;;;;-4.11;100.00;100422.56;9849849;30;20059;-93
2022/01/10 01:30:01;;;;;;;26.20;8.23;;;;;;;-3.94;100.00;100578.53;9837055;30;20078;-91
2022/01/10 01:35:06;;;;;;;37.87;8.23;;;;;;;-4.35;100.00;100350.03;9836252;30;20059;-95
2022/01/10 01:40:09;;;;;;;22.37;8.00;;;;;;;-4.57;100.00;100566.47;9851020;30;20507;-95
2022/01/10 01:45:11;;;;;;;25.43;7.90;;;;;;;-7.18;100.00;100086.22;9848930;30;20036;-94
2022/01/10 01:50:12;;;;;;;23.63;8.33;;;;;;;-6.15;100.00;100232.59;9847489;30;20437;-89
2022/01/10 01:55:18;;;;;;;28.60;7.47;;;;;;;-2.59;100.00;101128.59;9846646;30;20031;-90
2022/01/10 02:00:21;;;;;;;22.83;7.93;;;;;;;-5.03;100.00;100603.53;9831995;30;20039;-90
2022/01/10 02:05:22;;;;;;;22.67;9.30;;;;;;;-9.44;100.00;99674.13;9846294;30;20051;-90
2022/01/10 02:10:25;;;;;;;37.87;11.80;;;;;;;-5.05;100.00;100686.06;9831957;30;20406;-94
2022/01/10 02:15:34;;;;;;;33.93;12.00;;;;;;;-4.37;100.00;100674.53;9833056;30;20051;-94
2022/01/10 02:20:35;;;;;;;28.27;11.57;;;;;;;-5.10;100.00;100652.50;9835621;30;20035;-93
2022/01/10 02:25:36;;;;;;;33.07;11.07;;;;;;;-7.86;100.00;100139.53;9832031;30;20077;-95
2022/01/10 02:30:37;;;;;;;30.87;12.33;;;;;;;-3.81;100.00;100739.41;9860381;30;20051;-95
2022/01/10 02:35:47;;;;;;;38.60;11.27;;;;;;;-6.03;100.00;100456.44;9831354;30;20056;-94
2022/01/10 02:40:49;;;;;;;49.70;9.73;;;;;;;-6.99;100.00;100143.16;9845255;30;20050;-91
2022/01/10 02:45:50;;;;;;;32.37;11.40;;;;;;;-4.64;100.00;100530.53;9844752;30;20054;-90
2022/01/10 02:50:50;;;;;;;37.93;9.90;;;;;;;-6.17;100.00;100425.69;9829628;30;20134;-89
2022/01/10 02:55:51;;;;;;;28.73;9.07;;;;;;;-5.62;100.00;100464.69;9844442;30;20050;-95
2022/01/10 03:00:52;;;;;;;37.63;10.13;;;;;;;-5.28;100.00;100729.50;9845048;30;20092;-94
2022/01/10 03:05:53;;;;;;;32.97;10.50;;;;;;;-7.33;100.00;100291.88;9830552;30;20043;-95
2022/01/10 03:10:54;;;;;;;35.63;11.43;;;;;;;-5.70;100.00;100714.03;9829784;30;20453;-94
2022/01/10 03:15:54;;;;;;;29.63;10.10;;;;;;;-6.55;100.00;100537.53;9830210;30;20046;-95
2022/01/10 03:20:57;;;;;;;40.90;10.90;;;;;;;-6.68;100.00;100464.75;9829760;30;20047;-91
2022/01/10 03:26:00;;;;;;;28.93;10.60;;;;;;;-5.69;100.00;100597.72;9829650;30;20501;-90
2022/01/10 03:31:01;;;;;;;35.63;10.73;;;;;;;-5.55;100.00;100637.41;9844149;30;20134;-94
2022/01/10 03:36:04;;;;;;;40.70;11.77;;;;;;;-3.86;100.00;100968.53;9829283;30;20064;-95
2022/01/10 03:41:07;;;;;;;47.80;12.23;;;;;;;-6.50;100.00;100709.31;9829216;30;20044;-95
2022/01/10 03:46:10;;;;;;;41.17;12.80;;;;;;;-6.62;100.00;100474.84;9828899;30;20140;-94
2022/01/10 03:51:11;;;;;;;34.83;12.73;;;;;;;-3.46;100.00;101105.19;9842824;30;20103;-93
2022/01/10 03:56:11;;;;;;;48.13;13.77;;;;;;;-5.85;100.00;100747.72;9828699;30;20047;-94
2022/01/10 04:01:14;;;;;;;45.67;15.60;;;;;;;-8.07;100.00;100234.16;9829308;30;20032;-93
2022/01/10 04:06:15;;;;;;;41.83;15.00;;;;;;;-4.39;100.00;101083.19;9828509;30;20059;-94
2022/01/10 04:11:15;;;;;;;45.13;15.13;;;;;;;-3.80;100.00;101117.69;9843082;30;20085;-93
2022/01/10 04:16:16;;;;;;;52.20;17.10;;;;;;;-4.90;100.00;100808.88;9842942;30;20439;-94
2022/01/10 04:21:17;;;;;;;63.07;18.70;;;;;;;-0.94;100.00;101611.56;9827290;30;20096;-89
2022/01/10 04:26:17;;;;;;;63.97;16.97;;;;;;;-2.71;100.00;101279.81;9825900;30;20071;-90
2022/01/10 04:31:18;;;;;;;68.60;19.87;;;;;;;-6.92;100.00;100513.53;9826736;30;20572;-90
2022/01/10 04:36:23;;;;;;;72.67;23.47;;;;;;;-7.27;100.00;100525.81;9841244;30;20055;-95
2022/01/10 04:41:24;;;;;;;68.27;23.50;;;;;;;-5.54;100.00;100770.53;9828578;30;20055;-94
2022/01/10 04:46:24;;;;;;;65.63;22.47;;;;;;;-5.57;100.00;100770.00;9827226;30;20038;-94
2022/01/10 04:51:27;;;;;;;81.43;25.10;;;;;;;-5.73;100.00;100822.44;9827294;30;20136;-93
2022/01/10 04:56:27;;;;;;;75.83;26.43;;;;;;;-4.58;100.00;101102.13;9827485;30;20063;-93
2022/01/10 05:01:28;;;;;;;72.67;25.20;;;;;;;-10.15;100.00;100329.78;9827225;30;20126;-94
2022/01/10 05:06:29;;;;;;;72.37;24.03;;;;;;;-6.01;100.00;100845.75;9812402;30;20132;-94
2022/01/10 05:11:29;;;;;;;71.60;22.37;;;;;;;-6.38;100.00;101018.03;9826614;30;20467;-91
2022/01/10 05:16:30;;;;;;;71.87;22.53;;;;;;;-4.53;100.00;101296.81;9826682;30;20067;-91
2022/01/10 05:21:33;;;;;;;69.07;21.90;;;;;;;-6.02;100.00;100752.94;9826701;30;20036;-91
2022/01/10 05:26:45;;;;;;;66.77;22.57;;;;;;;-3.25;100.00;101300.56;9828911;30;20063;-91
2022/01/10 05:31:46;;;;;;;76.27;24.10;;;;;;;-7.42;100.00;100655.63;9826117;30;20051;-94
2022/01/10 05:37:11;;;;;;;64.57;22.63;;;;;;;-1.45;100.00;101603.28;9830690;30;20059;-94
2022/01/10 05:42:33;;;;;;;78.70;24.30;;;;;;;-10.58;100.00;100240.47;9862429;30;20048;-95
2022/01/10 05:48:13;;;;;;;71.07;24.33;;;;;;;-4.69;100.00;101336.91;9843055;30;20418;-95
2022/01/10 07:22:39;;;;;;;91.23;31.33;;;;;;;-6.53;100.00;101108.66;11337956;24;20083;-93
2022/01/10 07:27:40;;;;;;;102.23;34.20;;;;;;;-3.76;100.00;101598.88;10212442;24;20143;-94
2022/01/10 07:33:06;;;;;;;82.18;32.97;;;;;;;-8.35;100.00;100987.16;9851598;30;20062;-96
2022/01/10 07:38:07;;;;;;;109.83;36.70;;;;;;;-8.79;100.00;100820.91;9846851;30;20042;-94
2022/01/10 07:43:07;;;;;;;95.87;36.43;;;;;;;-7.46;100.00;101028.59;9860866;30;20058;-95
2022/01/10 07:48:08;;;;;;;119.03;41.80;;;;;;;-3.33;100.00;101717.81;9843528;30;20134;-94
2022/01/10 07:53:08;;;;;;;112.63;40.17;;;;;;;-7.43;100.00;101033.69;9843099;30;20048;-95
2022/01/10 07:58:09;;;;;;;112.43;39.60;;;;;;;-6.94;100.00;101254.22;9829322;30;20510;-93
2022/01/10 08:03:09;;;;;;;115.23;41.10;;;;;;;-6.48;100.00;101190.44;9842889;30;20073;-90
2022/01/10 08:08:10;;;;;;;126.30;42.33;;;;;;;-1.83;100.00;102156.84;9827276;30;20046;-90
2022/01/10 08:13:11;;;;;;;130.57;43.17;;;;;;;-6.28;100.00;101229.72;9827693;30;20073;-89
2022/01/10 08:18:11;;;;;;;140.73;45.57;;;;;;;-5.81;100.00;101293.44;9855177;30;20461;-89
2022/01/10 08:23:13;;;;;;;122.40;47.13;;;;;;;-2.93;100.00;101746.44;9826777;30;20496;-87
2022/01/10 08:28:13;;;;;;;137.47;45.80;;;;;;;-6.69;100.00;101279.72;9812497;30;20052;-92
2022/01/10 08:33:14;;;;;;;124.23;45.93;;;;;;;-6.15;100.00;101272.34;9797213;30;20059;-92
2022/01/10 08:38:14;;;;;;;137.27;45.37;;;;;;;-5.62;100.00;101459.81;9791669;30;20040;-92
2022/01/10 08:43:16;;;;;;;125.60;47.87;;;;;;;-3.08;100.00;101714.56;9791063;30;20076;-94
2022/01/10 08:53:27;;;;;;;121.60;44.70;;;;;;;-5.72;100.00;101244.34;10365875;24;20063;-88
2022/01/10 08:58:32;;;;;;;128.17;47.70;;;;;;;-3.14;100.00;101703.47;9826011;30;20130;-94
2022/01/10 09:03:34;;;;;;;161.43;50.50;;;;;;;-6.24;100.00;101289.22;9843603;30;20040;-90
2022/01/10 09:08:36;;;;;;;165.60;60.13;;;;;;;-4.16;100.00;101832.94;9841111;30;20543;-89
2022/01/10 09:13:36;;;;;;;157.53;58.57;;;;;;;-2.94;100.00;101767.13;9845736;30;20031;-89
2022/01/10 09:18:37;;;;;;;151.73;53.97;;;;;;;-7.16;100.00;101130.25;9818392;30;20047;-94
2022/01/10 09:23:38;;;;;;;152.23;55.97;;;;;;;-4.88;100.00;101666.28;9832698;30;20058;-89
2022/01/10 09:28:38;;;;;;;141.40;52.03;;;;;;;-7.38;100.00;101261.47;9821610;30;20062;-93
2022/01/10 09:33:40;;;;;;;155.67;55.40;;;;;;;-3.65;100.00;101689.38;9830018;30;20399;-89
2022/01/10 09:38:41;;;;;;;155.90;55.10;;;;;;;-6.22;100.00;101371.22;9823418;30;20039;-92
2022/01/10 09:43:49;;;;;;;143.60;54.53;;;;;;;-2.88;100.00;101800.72;9832756;30;20035;-92
2022/01/10 09:48:50;;;;;;;149.63;58.83;;;;;;;-4.56;100.00;101594.56;9832323;30;20067;-92
2022/01/10 09:53:51;;;;;;;162.77;62.23;;;;;;;-5.85;100.00;101386.69;9832278;30;20110;-94
2022/01/10 09:58:53;;;;;;;161.00;62.53;;;;;;;-3.15;100.00;101829.22;9860103;29;20043;-95
2022/01/10 10:03:58;;;;;;;164.53;62.50;;;;;;;-2.95;100.00;101823.88;9853172;29;20563;-89
2022/01/10 10:09:00;;;;;;;165.70;62.53;;;;;;;-4.53;100.00;101697.22;9852836;29;20512;-94
2022/01/10 10:14:03;;;;;;;172.07;67.50;;;;;;;-5.18;100.00;101420.13;9833381;30;20508;-94
2022/01/10 10:19:04;;;;;;;179.50;66.80;;;;;;;-5.98;100.00;101440.59;9830744;30;20371;-89
2022/01/10 10:24:05;;;;;;;168.80;66.13;;;;;;;-6.41;100.00;101187.06;9843769;30;20059;-95
2022/01/10 10:29:05;;;;;;;168.43;67.77;;;;;;;-2.06;100.00;102064.53;9845009;30;20043;-88
2022/01/10 10:34:06;;;;;;;165.20;63.60;;;;;;;-1.61;100.00;101960.47;9828690;30;20058;-89
2022/01/10 10:39:07;;;;;;;176.67;68.87;;;;;;;-5.41;100.00;101434.75;9843490;30;20069;-90
2022/01/10 10:44:08;;;;;;;200.70;74.77;;;;;;;-7.86;100.00;100909.09;9857948;30;20044;-90
2022/01/10 10:49:08;;;;;;;171.10;67.97;;;;;;;-4.00;100.00;101636.09;9813123;30;20048;-89
2022/01/10 10:54:11;;;;;;;168.77;67.60;;;;;;;-3.47;100.00;101759.50;9805873;30;20233;-90
2022/01/10 10:59:17;;;;;;;169.37;67.80;;;;;;;-1.18;100.00;102064.34;9807004;30;20066;-90
2022/01/10 11:05:04;;;;;;;;;;;;;;;;;;;;;
2022/01/10 11:11:00;;;;;;;;;;;;;;;;;;;;;
2022/01/10 11:16:34;;;;;;;147.10;59.17;;;;;;;-4.85;100.00;101137.88;9889459;29;20042;-92
2022/01/10 11:22:09;;;;;;;142.00;59.00;;;;;;;-2.60;100.00;101477.31;9872008;29;20567;-91
2022/01/10 11:27:35;;;;;;;137.23;57.00;;;;;;;-3.60;100.00;101372.19;9846662;29;20046;-95
2022/01/10 11:33:26;;;;;;;142.83;54.93;;;;;;;-5.19;100.00;100966.59;9867603;29;20127;-95
2022/01/10 11:38:43;;;;;;;117.00;53.58;;;;;;;-3.32;100.00;101366.81;9849088;29;20128;-94
2022/01/10 11:44:06;;;;;;;107.13;49.17;;;;;;;0.94;100.00;102042.13;9866392;29;20070;-94
2022/01/10 11:49:09;;;;;;;93.10;45.13;;;;;;;1.22;100.00;102072.63;9881297;29;20078;-95
2022/01/10 11:54:30;;;;;;;105.17;46.33;;;;;;;0.23;100.00;101838.22;9880398;29;20409;-94
2022/01/10 11:59:38;;;;;;;87.97;42.93;;;;;;;-1.14;100.00;101643.34;9866552;29;20503;-94
2022/01/10 12:04:39;;;;;;;72.97;37.60;;;;;;;3.27;100.00;102235.91;9863137;29;20058;-89
2022/01/10 12:09:39;;;;;;;61.67;31.58;;;;;;;0.36;100.00;101841.31;9906373;29;20048;-90
2022/01/10 12:14:41;;;;;;;60.60;27.73;;;;;;;-1.20;100.00;101531.34;9850122;29;20040;-90
2022/01/10 12:19:42;;;;;;;52.17;26.52;;;;;;;-0.99;100.00;101646.31;9825746;30;20069;-89
2022/01/10 12:30:04;;;;;;;40.45;21.92;;;;;;;-0.39;100.00;101667.94;9876353;29;20063;-95
2022/01/10 12:35:05;;;;;;;45.27;23.63;;;;;;;-0.49;100.00;101551.75;9826575;30;20040;-94
2022/01/10 12:40:06;;;;;;;36.08;20.42;;;;;;;-2.94;100.00;101302.88;9827298;30;20513;-96
2022/01/10 12:45:09;;;;;;;40.97;19.35;;;;;;;3.26;100.00;102171.59;9827522;30;20157;-95
2022/01/10 12:50:10;;;;;;;40.07;21.43;;;;;;;0.72;100.00;101932.41;9834321;30;20044;-90
2022/01/10 12:55:11;;;;;;;35.25;19.00;;;;;;;-0.94;100.00;101487.22;9831214;30;20058;-90
2022/01/10 13:00:12;;;;;;;37.28;19.08;;;;;;;1.79;100.00;101863.69;9846956;30;20036;-95
2022/01/10 13:05:14;;;;;;;35.78;16.48;;;;;;;1.23;100.00;101835.56;9846375;30;20031;-90
2022/01/10 13:10:26;;;;;;;34.75;18.10;;;;;;;1.13;100.00;101734.53;9845720;30;20043;-90
2022/01/10 13:15:42;;;;;;;31.67;14.98;;;;;;;0.82;100.00;101555.47;9847452;30;20390;-89
2022/01/10 13:20:46;;;;;;;33.40;14.57;;;;;;;5.49;100.00;102054.25;9846562;30;20047;-90
2022/01/10 13:25:49;;;;;;;22.42;12.73;;;;;;;2.36;100.00;101380.88;9834236;30;20146;-95
2022/01/10 13:30:57;;;;;;;19.58;12.02;;;;;;;4.98;100.00;101727.56;9842827;30;20071;-96
2022/01/10 13:36:05;;;;;;;20.60;10.88;;;;;;;2.31;100.00;101315.38;9834377;30;20450;-91
2022/01/10 13:41:11;;;;;;;23.58;11.60;;;;;;;5.86;100.00;101980.25;9830426;30;20032;-90
2022/01/10 13:46:20;;;;;;;23.15;11.48;;;;;;;3.70;100.00;101737.19;9817691;30;20036;-93
2022/01/10 13:51:22;;;;;;;23.27;12.85;;;;;;;0.34;100.00;101396.41;9846241;30;20040;-87
2022/01/10 13:56:28;;;;;;;29.60;12.68;;;;;;;3.83;100.00;102201.34;9830630;30;20391;-87
2022/01/10 14:01:41;;;;;;;21.75;14.73;;;;;;;0.15;100.00;101782.16;9846521;30;20046;-95
2022/01/10 14:06:41;;;;;;;27.55;14.18;;;;;;;-0.19;100.00;101664.97;9847752;30;20036;-89
2022/01/10 14:11:42;;;;;;;27.45;15.90;;;;;;;0.74;100.00;101973.75;9846543;30;20486;-95
2022/01/10 14:16:48;;;;;;;31.15;16.48;;;;;;;-1.06;100.00;101679.38;9845824;30;20062;-95
2022/01/10 14:21:49;;;;;;;41.50;19.53;;;;;;;2.37;100.00;102399.78;9846805;30;20191;-95
2022/01/10 14:26:51;;;;;;;35.53;18.17;;;;;;;0.10;100.00;101849.47;9846057;30;20051;-94
2022/01/10 14:31:52;;;;;;;40.70;21.15;;;;;;;-0.41;100.00;101772.78;9830140;30;20508;-95
2022/01/10 14:36:53;;;;;;;39.75;20.42;;;;;;;-2.02;100.00;101576.69;9844059;30;20139;-95
2022/01/10 14:41:57;;;;;;;37.63;18.65;;;;;;;-3.78;100.00;101234.06;9829666;30;20040;-95
2022/01/10 14:47:00;;;;;;;34.50;20.25;;;;;;;-2.58;100.00;101557.06;9855062;29;20036;-96
2022/01/10 14:52:12;;;;;;;32.60;19.52;;;;;;;-0.53;100.00;101991.28;9847117;30;20040;-96
2022/01/10 14:57:20;;;;;;;36.45;20.45;;;;;;;1.03;100.00;102376.59;9845616;30;20126;-95
2022/01/10 15:02:29;;;;;;;43.83;23.40;;;;;;;-0.40;100.00;102015.25;9846763;30;20043;-90
2022/01/10 15:07:35;;;;;;;34.13;22.13;;;;;;;-1.97;100.00;101868.50;9844172;30;20071;-90
2022/01/10 15:12:43;;;;;;;39.63;22.40;;;;;;;0.09;100.00;102281.06;9844931;30;20043;-94
2022/01/10 15:17:43;;;;;;;37.92;23.77;;;;;;;-2.91;100.00;101920.44;9843213;30;20039;-96
2022/01/10 15:22:54;;;;;;;43.43;24.10;;;;;;;-1.12;100.00;102176.41;9840558;30;20056;-91
2022/01/10 15:28:02;;;;;;;53.13;25.97;;;;;;;-0.99;100.00;102219.34;9846156;30;20436;-90
2022/01/10 15:33:06;;;;;;;50.07;28.13;;;;;;;-2.98;100.00;101910.34;9830318;30;20543;-95
2022/01/10 15:38:06;;;;;;;54.70;29.97;;;;;;;-4.11;100.00;101852.22;9828830;30;20131;-95
2022/01/10 15:43:07;;;;;;;46.30;26.70;;;;;;;-3.44;100.00;102060.75;9842195;30;20096;-89
2022/01/10 15:48:07;;;;;;;56.87;31.70;;;;;;;-4.93;100.00;101684.59;9827523;30;20067;-95
2022/01/10 15:53:08;;;;;;;53.33;28.57;;;;;;;-1.11;100.00;102446.56;9827419;30;20120;-90
2022/01/10 15:58:10;;;;;;;54.20;30.10;;;;;;;-1.92;100.00;102195.50;9841440;30;20035;-88
2022/01/10 16:03:21;;;;;;;51.60;27.43;;;;;;;-6.09;100.00;101668.53;9823551;29;20037;-91
2022/01/10 16:08:34;;;;;;;53.43;28.40;;;;;;;-2.79;100.00;102061.31;9843968;30;20043;-90
2022/01/10 16:14:26;;;;;;;57.90;32.80;;;;;;;-4.47;100.00;101943.13;9841900;30;20044;-91
2022/01/10 16:19:21;;;;;;;54.90;31.87;;;;;;;-5.69;100.00;101718.81;9844479;30;20040;-88
2022/01/10 16:24:21;;;;;;;57.97;31.77;;;;;;;-2.47;100.00;102222.03;9841997;30;20097;-92
2022/01/10 16:29:22;;;;;;;62.63;32.23;;;;;;;-3.52;100.00;102220.25;9824786;30;20142;-87
2022/01/10 16:34:22;;;;;;;61.87;31.47;;;;;;;-6.64;100.00;101764.91;9810223;30;20051;-89
2022/01/10 16:39:23;;;;;;;61.53;34.20;;;;;;;-5.69;100.00;101848.41;9825722;30;20147;-90
2022/01/10 16:44:24;;;;;;;62.63;33.53;;;;;;;-3.49;100.00;102259.53;9840249;30;20036;-94
2022/01/10 16:49:27;;;;;;;58.07;33.40;;;;;;;-2.27;100.00;102395.63;9827864;30;20393;-95
2022/01/10 16:54:28;;;;;;;69.77;37.93;;;;;;;-2.09;100.00;102619.84;9803903;30;20131;-95
2022/01/10 16:59:30;;;;;;;69.87;36.87;;;;;;;-2.89;100.00;102351.47;9805599;30;20538;-89
2022/01/10 17:04:31;;;;;;;65.43;35.80;;;;;;;-4.40;100.00;102304.56;9803668;30;20044;-89
2022/01/10 17:09:32;;;;;;;75.87;38.40;;;;;;;-2.50;100.00;102595.31;9802993;30;20048;-92
2022/01/10 17:14:35;;;;;;;68.40;37.40;;;;;;;-5.09;100.00;102200.63;9790500;30;20101;-93
2022/01/10 17:19:36;;;;;;;76.90;37.77;;;;;;;-3.26;100.00;102324.94;9779526;30;20036;-93
2022/01/10 17:24:37;;;;;;;81.60;41.50;;;;;;;-2.50;100.00;102435.34;9839441;30;20463;-89
2022/01/10 17:29:38;;;;;;;82.70;42.67;;;;;;;-6.54;100.00;101923.94;9824726;30;20197;-89
2022/01/10 17:34:39;;;;;;;87.03;41.70;;;;;;;-8.68;100.00;101467.72;9845857;30;20047;-94
2022/01/10 17:39:39;;;;;;;91.67;44.57;;;;;;;-4.66;100.00;102135.44;9847784;30;20051;-94
2022/01/10 17:44:40;;;;;;;82.13;43.73;;;;;;;-6.22;100.00;102108.25;9848017;30;20419;-95
2022/01/10 17:49:48;;;;;;;78.20;42.60;;;;;;;-5.78;100.00;102100.47;9847396;30;20112;-94
2022/01/10 17:54:49;;;;;;;84.37;41.73;;;;;;;-7.12;100.00;102054.97;9849223;30;20485;-95
2022/01/10 17:59:49;;;;;;;89.10;44.83;;;;;;;-2.76;100.00;102716.06;9847199;30;20122;-95
2022/01/10 18:04:50;;;;;;;97.83;46.37;;;;;;;-7.01;100.00;101908.78;9847736;30;20055;-95
2022/01/10 18:09:52;;;;;;;91.00;45.07;;;;;;;-4.34;100.00;102305.88;9833518;30;20506;-95
2022/01/10 18:14:53;;;;;;;86.20;45.40;;;;;;;-5.64;100.00;102261.22;9831762;30;20062;-95
2022/01/10 18:19:54;;;;;;;88.73;47.30;;;;;;;-6.66;100.00;102013.25;9846570;30;20051;-96
2022/01/10 18:24:55;;;;;;;98.60;47.57;;;;;;;-8.90;100.00;101538.72;9847006;30;20040;-95
2022/01/10 18:29:55;;;;;;;101.17;50.50;;;;;;;-10.43;100.00;101483.75;9823476;30;20075;-96
2022/01/10 18:34:56;;;;;;;106.53;51.47;;;;;;;-7.87;100.00;101741.31;9824639;30;20052;-95
2022/01/10 18:39:59;;;;;;;94.77;47.17;;;;;;;-4.17;100.00;102375.34;9823038;30;20043;-93
2022/01/10 18:45:00;;;;;;;115.27;56.27;;;;;;;-4.66;100.00;102342.38;9823284;30;20048;-93
2022/01/10 18:50:01;;;;;;;180.57;56.60;;;;;;;-1.25;100.00;102877.47;9809202;30;20494;-96
2022/01/10 18:55:02;;;;;;;178.00;55.57;;;;;;;-1.26;100.00;102920.84;9824429;30;20040;-88
2022/01/10 19:00:06;;;;;;;136.77;52.30;;;;;;;-5.39;100.00;102294.28;9821051;30;20040;-90
2022/01/10 19:05:07;;;;;;;138.80;48.60;;;;;;;-5.43;100.00;102276.69;9821310;30;20402;-88
2022/01/10 19:10:08;;;;;;;128.57;46.93;;;;;;;-6.32;100.00;102153.63;9820733;30;20176;-90
2022/01/10 19:15:09;;;;;;;144.27;46.37;;;;;;;-9.06;100.00;101623.50;9820347;30;20054;-90
2022/01/10 19:20:12;;;;;;;115.93;43.43;;;;;;;-1.37;100.00;103042.47;9806071;30;20048;-89
2022/01/10 19:25:13;;;;;;;99.13;41.73;;;;;;;-6.78;100.00;102070.41;9821059;30;20536;-90
2022/01/10 19:30:13;;;;;;;123.20;41.47;;;;;;;-5.45;100.00;102504.94;9820152;30;20131;-89
2022/01/10 19:35:16;;;;;;;107.63;44.13;;;;;;;-4.75;100.00;102434.44;9820179;30;20051;-90
2022/01/10 19:40:17;;;;;;;108.70;40.90;;;;;;;-2.37;100.00;102959.34;9820244;30;20047;-90
2022/01/10 19:45:17;;;;;;;124.27;42.53;;;;;;;-7.74;100.00;102167.19;9819676;30;20043;-89
2022/01/10 19:50:18;;;;;;;147.00;44.37;;;;;;;-6.66;100.00;102218.66;9819347;30;20105;-90
2022/01/10 19:55:19;;;;;;;267.97;54.03;;;;;;;-8.25;100.00;102079.72;9818836;30;20051;-90
2022/01/10 20:00:22;;;;;;;128.23;43.53;;;;;;;-5.07;100.00;102429.63;9804468;30;20478;-89
2022/01/10 20:05:25;;;;;;;132.07;45.07;;;;;;;-7.12;100.00;102052.28;9805692;30;20074;-91
2022/01/10 20:10:39;;;;;;;;;;;;;;;;;;;;;
2022/01/10 20:15:40;;;;;;;205.93;50.90;;;;;;;-8.52;100.00;101810.06;9809137;30;20393;-90
2022/01/10 20:20:46;;;;;;;134.53;47.10;;;;;;;-3.25;100.00;102841.13;9819615;30;20059;-92
2022/01/10 20:25:55;;;;;;;171.67;52.20;;;;;;;-8.76;100.00;101988.81;9820239;30;20121;-91
2022/01/10 20:30:58;;;;;;;253.13;58.30;;;;;;;-4.23;100.00;102756.84;9819590;30;20110;-91
2022/01/10 20:36:01;;;;;;;204.13;55.13;;;;;;;-4.99;100.00;102549.09;9789943;30;20139;-91
2022/01/10 20:41:25;;;;;;;235.23;55.58;;;;;;;-7.85;100.00;101873.00;9820696;30;20486;-91
2022/01/10 20:46:28;;;;;;;184.40;51.90;;;;;;;-9.31;100.00;101693.69;9818724;30;20071;-91
2022/01/10 20:51:29;;;;;;;274.40;58.43;;;;;;;-4.55;100.00;102569.16;9819782;30;20055;-91
2022/01/10 20:56:30;;;;;;;136.17;51.17;;;;;;;-5.85;100.00;102592.72;9804124;30;20085;-90
2022/01/10 21:01:30;;;;;;;275.03;60.47;;;;;;;-5.86;100.00;102330.84;9818553;30;20069;-91
2022/01/10 21:06:35;;;;;;;235.97;57.67;;;;;;;-8.10;100.00;101901.50;9820145;30;20494;-90
2022/01/10 21:11:36;;;;;;;256.47;59.90;;;;;;;-6.05;100.00;102253.59;9824995;30;20052;-90
2022/01/10 21:16:36;;;;;;;163.67;56.47;;;;;;;-3.59;100.00;102805.09;9806852;30;20040;-89
2022/01/10 21:21:47;;;;;;;203.23;61.20;;;;;;;-6.70;100.00;102210.84;9809246;30;20032;-92
2022/01/10 21:26:49;;;;;;;387.50;75.40;;;;;;;-3.92;100.00;102686.34;9816541;30;20068;-89
2022/01/10 21:31:55;;;;;;;303.70;70.50;;;;;;;-4.53;100.00;102654.06;9827280;30;20135;-90
2022/01/10 21:36:56;;;;;;;225.75;65.90;;;;;;;-6.54;100.00;102188.31;9830982;30;20151;-88
2022/01/10 21:41:56;;;;;;;327.10;71.87;;;;;;;-6.64;100.00;102350.66;9829522;30;20120;-89
2022/01/10 21:46:57;;;;;;;250.47;67.03;;;;;;;-5.57;100.00;102246.38;9814557;30;20054;-89
2022/01/10 21:51:57;;;;;;;315.43;72.57;;;;;;;-5.58;100.00;102281.38;9834988;30;20063;-89
2022/01/10 21:56:58;;;;;;;432.63;84.53;;;;;;;-4.29;100.00;102613.78;9829838;30;20108;-89
2022/01/10 22:01:58;;;;;;;236.90;70.60;;;;;;;-5.52;100.00;102263.00;9829969;30;20057;-86
2022/01/10 22:06:59;;;;;;;240.17;69.53;;;;;;;-5.05;100.00;102346.28;9829356;30;20494;-88
2022/01/10 22:11:59;;;;;;;325.20;77.30;;;;;;;-4.97;100.00;102333.13;9829035;30;20486;-89
2022/01/10 22:17:00;;;;;;;410.70;84.93;;;;;;;-9.81;100.00;101552.28;9829022;30;20091;-89
2022/01/10 22:22:00;;;;;;;301.63;75.73;;;;;;;-6.03;100.00;102287.34;9830461;30;20035;-94
2022/01/10 22:27:02;;;;;;;211.93;72.87;;;;;;;-4.18;100.00;102652.47;9831866;30;20126;-94
2022/01/10 22:32:04;;;;;;;313.20;75.73;;;;;;;-7.27;100.00;102140.84;9831416;30;20051;-94
2022/01/10 22:37:04;;;;;;;242.67;73.07;;;;;;;-5.50;100.00;102244.06;9831429;30;20434;-94
2022/01/10 22:42:05;;;;;;;340.23;79.37;;;;;;;-4.82;100.00;102534.44;9816589;30;20043;-94
2022/01/10 22:47:06;;;;;;;304.73;76.93;;;;;;;-6.95;100.00;102176.88;9816559;30;20104;-94
2022/01/10 22:52:07;;;;;;;185.13;68.77;;;;;;;-9.07;100.00;101774.72;9830621;30;20511;-94
2022/01/10 22:57:07;;;;;;;179.90;66.93;;;;;;;-5.25;100.00;102494.59;9831348;30;20050;-95
2022/01/10 23:02:08;;;;;;;241.67;71.53;;;;;;;-8.03;100.00;102009.66;9830574;30;20035;-94
2022/01/10 23:07:08;;;;;;;299.07;70.23;;;;;;;-4.51;100.00;102476.56;9829791;30;20043;-89
2022/01/10 23:12:09;;;;;;;238.63;69.63;;;;;;;-5.08;100.00;102411.81;9827703;30;20569;-89
2022/01/10 23:17:10;;;;;;;261.17;69.33;;;;;;;-4.91;100.00;102412.41;9813096;30;20071;-89
2022/01/10 23:22:10;;;;;;;254.33;65.50;;;;;;;-5.71;100.00;102402.16;9812825;30;20043;-89
2022/01/10 23:27:13;;;;;;;274.23;66.10;;;;;;;-8.95;100.00;101791.66;9820372;30;20439;-89
2022/01/10 23:32:16;;;;;;;285.37;64.10;;;;;;;-6.38;100.00;102252.38;9826537;30;20117;-89
2022/01/10 23:37:16;;;;;;;256.63;66.10;;;;;;;-9.30;100.00;101781.59;9827792;30;20044;-89
2022/01/10 23:42:17;;;;;;;271.87;62.77;;;;;;;-5.28;100.00;102597.69;9828137;30;20130;-94
2022/01/10 23:47:17;;;;;;;214.17;60.37;;;;;;;-6.15;100.00;102253.41;9828405;30;20035;-89
2022/01/10 23:52:27;;;;;;;181.97;60.33;;;;;;;-4.67;100.00;102504.59;9824209;30;20502;-89
2022/01/10 23:57:28;;;;;;;396.97;65.87;;;;;;;-3.53;100.00;102929.34;9841744;30;20504;-89
